createdAt,value
2023-09-10T00:00:10.811Z,101832.75
2023-09-10T00:02:37.448Z,101836.47
2023-09-10T00:05:04.148Z,101836.47
2023-09-10T00:07:30.618Z,101837.16
2023-09-10T00:09:57.122Z,101839.84
2023-09-10T00:12:23.543Z,101838.69
2023-09-10T00:14:49.955Z,101830.88
2023-09-10T00:17:16.515Z,101837.41
2023-09-10T00:19:43.023Z,101838.53
2023-09-10T00:22:09.435Z,101834.72
2023-09-10T00:24:35.949Z,101838.94
2023-09-10T00:27:02.594Z,101832.25
2023-09-10T00:29:29.025Z,101825.91
2023-09-10T00:31:55.571Z,101829.75
2023-09-10T00:34:22.075Z,101831.31
2023-09-10T00:36:52.277Z,101835.19
2023-09-10T00:39:20.967Z,101832.19
2023-09-10T00:41:47.726Z,101834.09
2023-09-10T00:44:14.247Z,101827.41
2023-09-10T00:46:40.823Z,101828.31
2023-09-10T00:49:07.279Z,101825.84
2023-09-10T00:51:33.914Z,101827.75
2023-09-10T00:54:00.733Z,101833.28
2023-09-10T00:56:27.179Z,101831.38
2023-09-10T00:58:54.624Z,101834.84
2023-09-10T01:01:21.982Z,101829.44
2023-09-10T01:03:48.394Z,101830.22
2023-09-10T01:06:14.886Z,101826.34
2023-09-10T01:08:41.696Z,101831.16
2023-09-10T01:11:32.740Z,101838.22
2023-09-10T01:14:11.696Z,101836.56
2023-09-10T01:16:51.767Z,101838.81
2023-09-10T01:19:52.493Z,101839.81
2023-09-10T01:22:46.768Z,101842.31
2023-09-10T01:25:14.706Z,101840.41
2023-09-10T01:27:41.333Z,101837.84
2023-09-10T01:30:10.553Z,101834.44
2023-09-10T01:32:44.587Z,101834.91
2023-09-10T01:35:34.712Z,101835.69
2023-09-10T01:38:10.977Z,101838.03
2023-09-10T01:41:03.196Z,101841.84
2023-09-10T01:43:32.305Z,101837.25
2023-09-10T01:45:58.826Z,101840.28
2023-09-10T01:48:27.704Z,101831.75
2023-09-10T01:50:55.305Z,101841.97
2023-09-10T01:53:21.702Z,101844.34
2023-09-10T01:55:48.307Z,101837.00
2023-09-10T01:58:14.722Z,101845.47
2023-09-10T02:00:41.186Z,101841.59
2023-09-10T02:03:08.104Z,101841.91
2023-09-10T02:05:34.688Z,101845.06
2023-09-10T02:08:01.081Z,101841.25
2023-09-10T02:10:29.150Z,101842.00
2023-09-10T02:12:55.611Z,101843.22
2023-09-10T02:15:22.035Z,101850.19
2023-09-10T02:17:48.543Z,101850.63
2023-09-10T02:20:15.121Z,101841.44
2023-09-10T02:22:41.746Z,101844.34
2023-09-10T02:25:09.156Z,101853.34
2023-09-10T02:27:36.431Z,101856.94
2023-09-10T02:30:06.813Z,101854.72
2023-09-10T02:32:33.712Z,101852.81
2023-09-10T02:35:00.423Z,101854.25
2023-09-10T02:37:26.863Z,101853.38
2023-09-10T02:39:53.235Z,101847.53
2023-09-10T02:42:19.626Z,101848.31
2023-09-10T02:44:46.148Z,101849.56
2023-09-10T02:47:12.561Z,101844.63
2023-09-10T02:49:39.087Z,101844.63
2023-09-10T02:52:05.618Z,101836.56
2023-09-10T02:54:37.284Z,101836.13
2023-09-10T02:57:03.891Z,101842.94
2023-09-10T02:59:30.304Z,101842.38
2023-09-10T03:01:56.913Z,101843.09
2023-09-10T03:04:23.385Z,101843.50
2023-09-10T03:06:51.069Z,101839.03
2023-09-10T03:09:17.897Z,101840.25
2023-09-10T03:11:47.503Z,101842.63
2023-09-10T03:14:14.173Z,101837.91
2023-09-10T03:16:40.726Z,101837.00
2023-09-10T03:19:07.668Z,101831.88
2023-09-10T03:21:37.436Z,101831.78
2023-09-10T03:24:04.060Z,101831.56
2023-09-10T03:26:30.457Z,101829.97
2023-09-10T03:28:56.939Z,101829.19
2023-09-10T03:31:23.573Z,101822.59
2023-09-10T03:33:50.033Z,101822.16
2023-09-10T03:36:16.456Z,101828.31
2023-09-10T03:38:42.876Z,101823.38
2023-09-10T03:41:09.323Z,101819.22
2023-09-10T03:43:36.116Z,101817.78
2023-09-10T03:46:02.568Z,101819.34
2023-09-10T03:48:29.036Z,101814.41
2023-09-10T03:50:55.484Z,101818.69
2023-09-10T03:53:21.883Z,101812.50
2023-09-10T03:55:48.344Z,101819.47
2023-09-10T03:58:14.834Z,101817.88
2023-09-10T04:00:41.394Z,101821.69
2023-09-10T04:03:07.932Z,101824.72
2023-09-10T04:05:34.463Z,101824.72
2023-09-10T04:08:00.971Z,101822.38
2023-09-10T04:10:28.315Z,101826.19
2023-09-10T04:12:54.794Z,101810.06
2023-09-10T04:15:21.180Z,101810.84
2023-09-10T04:17:47.679Z,101817.78
2023-09-10T04:20:14.650Z,101816.09
2023-09-10T04:22:41.094Z,101813.75
2023-09-10T04:25:07.898Z,101819.13
2023-09-10T04:27:34.704Z,101814.53
2023-09-10T04:30:01.121Z,101819.91
2023-09-10T04:32:27.569Z,101819.91
2023-09-10T04:34:54.044Z,101816.78
2023-09-10T04:37:20.481Z,101816.34
2023-09-10T04:39:47.100Z,101819.94
2023-09-10T04:42:13.526Z,101825.38
2023-09-10T04:44:39.876Z,101832.53
2023-09-10T04:47:06.278Z,101832.88
2023-09-10T04:49:32.649Z,101831.44
2023-09-10T04:51:59.011Z,101829.53
2023-09-10T04:54:25.407Z,101825.72
2023-09-10T04:56:56.011Z,101814.63
2023-09-10T04:59:23.752Z,101820.00
2023-09-10T05:01:50.304Z,101827.63
2023-09-10T05:04:16.972Z,101832.66
2023-09-10T05:06:43.429Z,101826.84
2023-09-10T05:09:09.926Z,101827.84
2023-09-10T05:11:36.277Z,101831.66
2023-09-10T05:14:03.400Z,101828.28
2023-09-10T05:16:30.892Z,101835.69
2023-09-10T05:18:57.444Z,101839.16
2023-09-10T05:21:23.843Z,101839.59
2023-09-10T05:23:50.341Z,101830.09
2023-09-10T05:26:17.130Z,101833.38
2023-09-10T05:28:46.604Z,101833.47
2023-09-10T05:31:13.645Z,101835.03
2023-09-10T05:36:07.000Z,101830.47
2023-09-10T05:38:33.458Z,101839.06
2023-09-10T05:41:04.511Z,101831.44
2023-09-10T05:43:31.573Z,101825.38
2023-09-10T05:45:58.986Z,101835.47
2023-09-10T05:48:25.553Z,101831.00
2023-09-10T05:50:59.056Z,101830.78
2023-09-10T05:53:25.730Z,101843.63
2023-09-10T05:55:52.229Z,101842.28
2023-09-10T05:58:20.206Z,101836.31
2023-09-10T06:00:46.885Z,101845.38
2023-09-10T06:03:13.377Z,101835.16
2023-09-10T06:05:39.884Z,101840.31
2023-09-10T06:08:06.616Z,101843.09
2023-09-10T06:10:33.001Z,101841.31
2023-09-10T06:12:59.413Z,101843.41
2023-09-10T06:15:25.791Z,101847.78
2023-09-10T06:17:52.289Z,101845.94
2023-09-10T06:20:18.733Z,101846.94
2023-09-10T06:22:45.246Z,101845.78
2023-09-10T06:25:11.616Z,101851.16
2023-09-10T06:27:38.128Z,101848.47
2023-09-10T06:30:05.172Z,101846.81
2023-09-10T06:32:31.703Z,101858.38
2023-09-10T06:34:58.209Z,101854.66
2023-09-10T06:37:25.237Z,101854.94
2023-09-10T06:39:51.646Z,101859.31
2023-09-10T06:42:18.104Z,101855.09
2023-09-10T06:44:44.742Z,101861.91
2023-09-10T06:47:11.718Z,101854.00
2023-09-10T06:49:40.154Z,101857.91
2023-09-10T06:52:09.886Z,101860.84
2023-09-10T06:54:36.290Z,101869.81
2023-09-10T06:57:02.830Z,101865.19
2023-09-10T06:59:29.482Z,101873.94
2023-09-10T07:01:56.161Z,101861.09
2023-09-10T07:04:24.289Z,101862.41
2023-09-10T07:06:52.512Z,101870.63
2023-09-10T07:09:23.533Z,101877.72
2023-09-10T07:11:54.546Z,101876.56
2023-09-10T07:14:22.177Z,101878.19
2023-09-10T07:16:49.501Z,101879.84
2023-09-10T07:19:16.308Z,101881.09
2023-09-10T07:21:42.703Z,101876.22
2023-09-10T07:24:10.568Z,101872.81
2023-09-10T07:26:37.864Z,101882.72
2023-09-10T07:29:08.215Z,101882.50
2023-09-10T07:31:35.815Z,101879.53
2023-09-10T07:34:03.126Z,101887.16
2023-09-10T07:36:30.064Z,101878.63
2023-09-10T07:38:56.428Z,101884.63
2023-09-10T07:41:23.318Z,101888.81
2023-09-10T07:43:49.845Z,101889.63
2023-09-10T07:46:16.627Z,101886.44
2023-09-10T07:48:43.108Z,101885.91
2023-09-10T07:51:09.515Z,101883.88
2023-09-10T07:53:35.944Z,101886.38
2023-09-10T07:56:02.911Z,101880.44
2023-09-10T07:58:29.452Z,101882.22
2023-09-10T08:00:57.960Z,101889.16
2023-09-10T08:03:25.029Z,101886.06
2023-09-10T08:05:51.594Z,101882.47
2023-09-10T08:08:18.107Z,101889.34
2023-09-10T08:10:46.473Z,101885.59
2023-09-10T08:13:13.628Z,101891.66
2023-09-10T08:15:43.756Z,101888.19
2023-09-10T08:18:12.646Z,101885.03
2023-09-10T08:20:40.760Z,101884.28
2023-09-10T08:23:08.164Z,101885.13
2023-09-10T08:25:35.119Z,101886.28
2023-09-10T08:28:01.580Z,101879.69
2023-09-10T08:30:28.773Z,101889.41
2023-09-10T08:32:55.408Z,101889.53
2023-09-10T08:35:23.734Z,101885.50
2023-09-10T08:37:50.436Z,101889.44
2023-09-10T08:40:17.701Z,101874.00
2023-09-10T08:42:59.124Z,101875.16
2023-09-10T08:45:25.649Z,101872.50
2023-09-10T08:47:55.782Z,101875.63
2023-09-10T08:50:23.377Z,101875.75
2023-09-10T08:52:50.386Z,101871.91
2023-09-10T08:55:17.002Z,101869.69
2023-09-10T08:57:46.622Z,101870.56
2023-09-10T09:00:14.015Z,101864.72
2023-09-10T09:02:42.272Z,101876.78
2023-09-10T09:05:09.433Z,101872.06
2023-09-10T09:07:44.139Z,101867.03
2023-09-10T09:10:15.253Z,101866.97
2023-09-10T09:12:43.001Z,101867.28
2023-09-10T09:15:10.285Z,101869.13
2023-09-10T09:17:39.822Z,101865.19
2023-09-10T09:20:12.123Z,101866.28
2023-09-10T09:22:44.243Z,101859.63
2023-09-10T09:25:11.332Z,101858.06
2023-09-10T09:27:38.842Z,101857.56
2023-09-10T09:30:09.029Z,101858.69
2023-09-10T09:32:40.280Z,101859.09
2023-09-10T09:35:10.471Z,101855.09
2023-09-10T09:37:37.583Z,101848.06
2023-09-10T09:40:05.204Z,101853.91
2023-09-10T09:42:31.680Z,101838.28
2023-09-10T09:45:01.330Z,101844.06
2023-09-10T09:47:27.963Z,101842.94
2023-09-10T09:49:57.658Z,101844.78
2023-09-10T09:52:24.167Z,101841.50
2023-09-10T09:54:50.585Z,101847.59
2023-09-10T09:57:17.907Z,101841.38
2023-09-10T09:59:45.154Z,101840.88
2023-09-10T10:02:16.303Z,101834.16
2023-09-10T10:04:46.213Z,101839.16
2023-09-10T10:07:23.229Z,101830.00
2023-09-10T10:09:51.730Z,101829.78
2023-09-10T10:12:18.457Z,101831.22
2023-09-10T10:14:45.725Z,101831.94
2023-09-10T10:17:12.688Z,101831.16
2023-09-10T10:19:40.679Z,101825.72
2023-09-10T10:22:08.235Z,101822.09
2023-09-10T10:24:35.970Z,101827.19
2023-09-10T10:27:02.815Z,101824.25
2023-09-10T10:29:29.518Z,101829.88
2023-09-10T10:32:03.181Z,101826.66
2023-09-10T10:34:38.578Z,101810.78
2023-09-10T10:37:10.999Z,101818.41
2023-09-10T10:40:17.737Z,101815.84
2023-09-10T10:43:08.884Z,101815.38
2023-09-10T10:45:36.287Z,101810.16
2023-09-10T10:48:10.142Z,101815.53
2023-09-10T10:50:39.708Z,101818.56
2023-09-10T10:53:18.607Z,101815.66
2023-09-10T10:55:46.663Z,101811.50
2023-09-10T10:58:13.730Z,101817.16
2023-09-10T11:00:40.117Z,101811.53
2023-09-10T11:03:14.833Z,101814.66
2023-09-10T11:05:53.898Z,101815.16
2023-09-10T11:08:30.952Z,101809.16
2023-09-10T11:10:58.465Z,101811.38
2023-09-10T11:13:26.085Z,101800.13
2023-09-10T11:16:05.164Z,101802.63
2023-09-10T11:18:37.738Z,101808.56
2023-09-10T11:21:13.698Z,101803.84
2023-09-10T11:24:02.351Z,101805.00
2023-09-10T11:26:30.147Z,101795.91
2023-09-10T11:29:01.163Z,101796.34
2023-09-10T11:31:40.078Z,101797.78
2023-09-10T11:34:15.957Z,101794.44
2023-09-10T11:36:56.423Z,101792.69
2023-09-10T11:39:23.573Z,101790.84
2023-09-10T11:41:54.597Z,101791.03
2023-09-10T11:44:21.254Z,101791.59
2023-09-10T11:46:48.086Z,101789.19
2023-09-10T11:49:15.616Z,101790.50
2023-09-10T11:51:43.039Z,101789.41
2023-09-10T11:54:09.903Z,101790.66
2023-09-10T11:56:36.380Z,101786.38
2023-09-10T11:59:03.592Z,101776.78
2023-09-10T12:01:32.352Z,101773.72
2023-09-10T12:03:58.731Z,101777.03
2023-09-10T12:06:25.252Z,101787.25
2023-09-10T12:08:51.615Z,101778.97
2023-09-10T12:11:20.317Z,101779.09
2023-09-10T12:13:47.019Z,101772.59
2023-09-10T12:16:14.369Z,101780.53
2023-09-10T12:18:41.868Z,101777.56
2023-09-10T12:21:13.276Z,101773.16
2023-09-10T12:23:40.059Z,101777.66
2023-09-10T12:26:08.573Z,101768.06
2023-09-10T12:28:35.108Z,101771.28
2023-09-10T12:31:01.753Z,101763.09
2023-09-10T12:33:29.156Z,101764.09
2023-09-10T12:35:57.177Z,101760.78
2023-09-10T12:38:23.719Z,101767.88
2023-09-10T12:40:53.525Z,101757.50
2023-09-10T12:43:20.868Z,101750.00
2023-09-10T12:45:48.186Z,101752.66
2023-09-10T12:48:18.930Z,101749.97
2023-09-10T12:50:46.312Z,101751.69
2023-09-10T12:53:13.114Z,101748.59
2023-09-10T12:55:40.060Z,101750.06
2023-09-10T12:58:08.802Z,101746.06
2023-09-10T13:00:35.216Z,101748.53
2023-09-10T13:03:01.637Z,101749.03
2023-09-10T13:05:28.324Z,101740.94
2023-09-10T13:07:54.841Z,101744.47
2023-09-10T13:10:21.332Z,101748.06
2023-09-10T13:12:47.793Z,101751.56
2023-09-10T13:15:19.520Z,101745.19
2023-09-10T13:17:46.077Z,101739.16
2023-09-10T13:20:12.690Z,101744.84
2023-09-10T13:22:39.239Z,101736.44
2023-09-10T13:25:06.182Z,101737.81
2023-09-10T13:27:32.603Z,101741.91
2023-09-10T13:29:59.032Z,101733.50
2023-09-10T13:32:25.550Z,101731.97
2023-09-10T13:34:52.071Z,101729.22
2023-09-10T13:37:18.585Z,101730.75
2023-09-10T13:39:44.987Z,101727.69
2023-09-10T13:42:12.597Z,101728.13
2023-09-10T13:44:38.988Z,101728.47
2023-09-10T13:47:05.439Z,101730.56
2023-09-10T13:49:31.922Z,101730.25
2023-09-10T13:51:58.391Z,101717.72
2023-09-10T13:54:24.746Z,101726.47
2023-09-10T13:56:51.247Z,101717.75
2023-09-10T13:59:17.769Z,101719.28
2023-09-10T14:01:45.390Z,101722.94
2023-09-10T14:04:12.833Z,101719.94
2023-09-10T14:06:39.806Z,101714.88
2023-09-10T14:09:06.505Z,101711.34
2023-09-10T14:11:32.992Z,101709.47
2023-09-10T14:13:59.507Z,101701.63
2023-09-10T14:16:26.326Z,101706.38
2023-09-10T14:18:52.805Z,101710.63
2023-09-10T14:21:21.076Z,101714.38
2023-09-10T14:23:47.510Z,101708.69
2023-09-10T14:26:13.975Z,101710.44
2023-09-10T14:28:40.706Z,101706.13
2023-09-10T14:31:07.485Z,101701.94
2023-09-10T14:33:33.932Z,101699.66
2023-09-10T14:36:00.802Z,101693.94
2023-09-10T14:38:27.551Z,101698.81
2023-09-10T14:40:54.075Z,101697.84
2023-09-10T14:43:20.545Z,101691.88
2023-09-10T14:45:47.117Z,101691.13
2023-09-10T14:48:13.994Z,101695.19
2023-09-10T14:50:40.511Z,101689.38
2023-09-10T14:53:06.978Z,101687.19
2023-09-10T14:55:33.461Z,101693.91
2023-09-10T14:57:59.876Z,101686.53
2023-09-10T15:00:26.360Z,101681.03
2023-09-10T15:02:52.829Z,101680.91
2023-09-10T15:05:19.380Z,101683.13
2023-09-10T15:07:45.909Z,101684.03
2023-09-10T15:10:13.059Z,101668.97
2023-09-10T15:12:39.443Z,101670.75
2023-09-10T15:15:06.410Z,101670.66
2023-09-10T15:17:32.960Z,101676.06
2023-09-10T15:19:59.428Z,101662.44
2023-09-10T15:22:25.805Z,101668.50
2023-09-10T15:24:52.488Z,101661.13
2023-09-10T15:27:18.983Z,101670.56
2023-09-10T15:29:45.370Z,101663.09
2023-09-10T15:32:11.865Z,101657.16
2023-09-10T15:34:38.336Z,101668.91
2023-09-10T15:37:05.115Z,101665.19
2023-09-10T15:39:32.687Z,101658.38
2023-09-10T15:41:59.144Z,101654.53
2023-09-10T15:44:26.391Z,101655.19
2023-09-10T15:46:52.973Z,101655.97
2023-09-10T15:49:19.750Z,101656.94
2023-09-10T15:51:46.413Z,101651.78
2023-09-10T15:54:14.144Z,101649.13
2023-09-10T15:56:40.637Z,101650.78
2023-09-10T15:59:07.072Z,101647.94
2023-09-10T16:01:33.553Z,101647.06
2023-09-10T16:04:00.104Z,101641.22
2023-09-10T16:06:26.647Z,101643.34
2023-09-10T16:08:53.055Z,101638.81
2023-09-10T16:11:19.674Z,101639.81
2023-09-10T16:13:46.104Z,101631.81
2023-09-10T16:16:12.527Z,101631.59
2023-09-10T16:18:39.230Z,101631.38
2023-09-10T16:21:05.689Z,101635.13
2023-09-10T16:23:34.519Z,101631.44
2023-09-10T16:26:01.860Z,101621.09
2023-09-10T16:28:28.350Z,101625.28
2023-09-10T16:30:54.862Z,101628.13
2023-09-10T16:33:21.260Z,101624.84
2023-09-10T16:35:47.663Z,101623.94
2023-09-10T16:38:14.340Z,101619.75
2023-09-10T16:40:40.936Z,101621.63
2023-09-10T16:43:07.343Z,101616.16
2023-09-10T16:45:33.797Z,101629.50
2023-09-10T16:48:01.562Z,101626.19
2023-09-10T16:50:28.100Z,101622.44
2023-09-10T16:52:54.590Z,101625.91
2023-09-10T16:55:20.963Z,101618.19
2023-09-10T16:57:47.369Z,101624.69
2023-09-10T17:00:14.198Z,101618.69
2023-09-10T17:02:40.795Z,101615.03
2023-09-10T17:05:07.916Z,101618.38
2023-09-10T17:07:36.235Z,101615.03
2023-09-10T17:10:03.390Z,101613.66
2023-09-10T17:12:29.773Z,101611.91
2023-09-10T17:14:56.570Z,101616.88
2023-09-10T17:17:23.126Z,101609.66
2023-09-10T17:19:49.501Z,101607.09
2023-09-10T17:22:15.976Z,101613.56
2023-09-10T17:24:42.385Z,101607.47
2023-09-10T17:27:08.759Z,101609.28
2023-09-10T17:29:35.248Z,101617.28
2023-09-10T17:32:02.050Z,101613.63
2023-09-10T17:34:28.552Z,101610.75
2023-09-10T17:39:35.254Z,101612.75
2023-09-10T17:42:01.675Z,101615.59
2023-09-10T17:44:28.150Z,101620.00
2023-09-10T17:46:58.184Z,101620.53
2023-09-10T17:49:24.619Z,101620.72
2023-09-10T17:51:51.677Z,101616.19
2023-09-10T17:54:18.033Z,101621.47
2023-09-10T17:56:44.605Z,101620.88
2023-09-10T17:59:11.119Z,101626.16
2023-09-10T18:01:37.591Z,101617.69
2023-09-10T18:04:04.391Z,101618.25
2023-09-10T18:06:30.894Z,101626.66
2023-09-10T18:08:57.516Z,101619.34
2023-09-10T18:11:25.314Z,101622.63
2023-09-10T18:13:51.800Z,101620.81
2023-09-10T18:16:18.161Z,101616.66
2023-09-10T18:18:44.650Z,101621.09
2023-09-10T18:21:11.212Z,101616.53
2023-09-10T18:23:38.016Z,101620.84
2023-09-10T18:26:05.904Z,101622.91
2023-09-10T18:28:32.360Z,101625.34
2023-09-10T18:31:06.693Z,101628.16
2023-09-10T18:33:37.918Z,101618.13
2023-09-10T18:36:05.547Z,101625.19
2023-09-10T18:38:41.620Z,101625.66
2023-09-10T18:41:08.092Z,101623.34
2023-09-10T18:43:35.000Z,101623.81
2023-09-10T18:46:01.471Z,101620.72
2023-09-10T18:48:27.919Z,101625.03
2023-09-10T18:50:54.501Z,101624.69
2023-09-10T18:53:21.576Z,101630.13
2023-09-10T18:55:48.150Z,101626.28
2023-09-10T18:58:14.521Z,101627.88
2023-09-10T19:00:41.086Z,101624.78
2023-09-10T19:03:07.658Z,101626.31
2023-09-10T19:05:34.192Z,101627.91
2023-09-10T19:08:00.675Z,101634.94
2023-09-10T19:10:27.089Z,101629.91
2023-09-10T19:12:53.523Z,101628.75
2023-09-10T19:15:19.956Z,101636.91
2023-09-10T19:17:46.470Z,101629.53
2023-09-10T19:20:13.009Z,101629.56
2023-09-10T19:22:39.554Z,101633.44
2023-09-10T19:25:06.399Z,101632.28
2023-09-10T19:27:32.866Z,101635.81
2023-09-10T19:29:59.478Z,101635.81
2023-09-10T19:32:26.067Z,101638.16
2023-09-10T19:34:52.559Z,101633.50
2023-09-10T19:37:22.374Z,101638.16
2023-09-10T19:39:48.787Z,101635.81
2023-09-10T19:42:15.200Z,101643.56
2023-09-10T19:44:42.822Z,101645.13
2023-09-10T19:47:09.400Z,101637.72
2023-09-10T19:49:35.966Z,101638.50
2023-09-10T19:52:02.364Z,101638.91
2023-09-10T19:54:28.797Z,101634.63
2023-09-10T19:56:55.220Z,101635.00
2023-09-10T19:59:21.737Z,101635.81
2023-09-10T20:01:48.244Z,101629.97
2023-09-10T20:04:14.919Z,101631.13
2023-09-10T20:06:43.184Z,101634.22
2023-09-10T20:09:10.169Z,101638.09
2023-09-10T20:11:37.697Z,101636.53
2023-09-10T20:14:04.527Z,101635.75
2023-09-10T20:16:31.006Z,101640.78
2023-09-10T20:18:57.543Z,101637.28
2023-09-10T20:21:24.353Z,101635.69
2023-09-10T20:23:50.973Z,101631.00
2023-09-10T20:26:17.472Z,101627.53
2023-09-10T20:28:44.074Z,101628.31
2023-09-10T20:31:10.624Z,101629.84
2023-09-10T20:33:37.082Z,101623.22
2023-09-10T20:36:08.908Z,101631.38
2023-09-10T20:38:35.804Z,101630.56
2023-09-10T20:41:17.046Z,101625.09
2023-09-10T20:43:44.168Z,101619.63
2023-09-10T20:46:12.350Z,101624.63
2023-09-10T20:48:39.033Z,101619.16
2023-09-10T20:51:07.819Z,101620.31
2023-09-10T20:53:35.777Z,101622.25
2023-09-10T20:56:02.405Z,101617.94
2023-09-10T20:58:28.930Z,101609.81
2023-09-10T21:00:55.438Z,101615.59
2023-09-10T21:03:28.991Z,101603.59
2023-09-10T21:06:08.160Z,101605.13
2023-09-10T21:08:34.693Z,101608.22
2023-09-10T21:11:07.314Z,101607.81
2023-09-10T21:13:33.755Z,101605.13
2023-09-10T21:16:00.262Z,101593.47
2023-09-10T21:18:28.454Z,101595.38
2023-09-10T21:20:55.113Z,101596.16
2023-09-10T21:23:22.689Z,101592.63
2023-09-10T21:25:49.250Z,101596.09
2023-09-10T21:28:15.648Z,101595.66
2023-09-10T21:30:42.076Z,101601.00
2023-09-10T21:33:08.761Z,101594.00
2023-09-10T21:35:35.272Z,101593.97
2023-09-10T21:38:01.711Z,101589.69
2023-09-10T21:40:28.162Z,101587.78
2023-09-10T21:42:54.636Z,101581.56
2023-09-10T21:45:21.033Z,101581.94
2023-09-10T21:47:47.472Z,101576.91
2023-09-10T21:50:14.048Z,101579.22
2023-09-10T21:52:41.047Z,101578.78
2023-09-10T21:55:07.946Z,101585.38
2023-09-10T21:57:34.422Z,101579.16
2023-09-10T22:00:00.923Z,101577.63
2023-09-10T22:02:27.438Z,101574.50
2023-09-10T22:04:53.922Z,101576.03
2023-09-10T22:07:20.384Z,101574.88
2023-09-10T22:09:46.938Z,101566.75
2023-09-10T22:12:13.448Z,101567.09
2023-09-10T22:14:39.953Z,101563.19
2023-09-10T22:17:06.440Z,101562.44
2023-09-10T22:19:32.890Z,101563.59
2023-09-10T22:21:59.317Z,101565.88
2023-09-10T22:24:25.680Z,101566.59
2023-09-10T22:26:52.219Z,101561.13
2023-09-10T22:29:18.726Z,101558.00
2023-09-10T22:31:45.206Z,101559.16
2023-09-10T22:34:11.627Z,101560.28
2023-09-10T22:36:39.143Z,101559.16
2023-09-10T22:39:06.748Z,101557.56
2023-09-10T22:41:33.273Z,101557.94
2023-09-10T22:43:59.788Z,101544.03
2023-09-10T22:46:28.116Z,101545.56
2023-09-10T22:48:54.490Z,101545.97
2023-09-10T22:51:20.898Z,101543.22
2023-09-10T22:53:51.540Z,101547.00
2023-09-10T22:56:18.909Z,101549.63
2023-09-10T22:58:47.646Z,101539.16
2023-09-10T23:01:15.800Z,101542.22
2023-09-10T23:03:42.444Z,101540.28
2023-09-10T23:06:09.169Z,101536.00
2023-09-10T23:08:38.975Z,101528.69
2023-09-10T23:11:06.532Z,101530.19
2023-09-10T23:13:33.172Z,101533.66
2023-09-10T23:15:59.931Z,101524.41
2023-09-10T23:18:26.582Z,101529.03
2023-09-10T23:20:53.069Z,101522.03
2023-09-10T23:23:19.553Z,101523.91
2023-09-10T23:25:45.968Z,101523.50
2023-09-10T23:28:14.126Z,101516.56
2023-09-10T23:30:40.524Z,101513.41
2023-09-10T23:33:07.263Z,101511.47
2023-09-10T23:35:35.749Z,101507.63
2023-09-10T23:38:02.285Z,101503.38
2023-09-10T23:40:28.653Z,101500.66
2023-09-10T23:42:55.022Z,101501.00
2023-09-10T23:45:21.393Z,101495.56
2023-09-10T23:47:47.894Z,101501.31
2023-09-10T23:50:14.357Z,101503.63
2023-09-10T23:52:40.734Z,101492.41
2023-09-10T23:55:08.487Z,101484.25
2023-09-10T23:57:35.054Z,101493.91
